createdAt,value
2017-08-09T00:00:43.044Z,17.90
2017-08-09T00:03:10.577Z,18.00
2017-08-09T00:05:38.112Z,17.90
2017-08-09T00:08:05.846Z,18.00
2017-08-09T00:10:33.382Z,18.00
2017-08-09T00:13:00.916Z,18.00
2017-08-09T00:15:29.294Z,17.80
2017-08-09T00:17:57.593Z,17.80
2017-08-09T00:20:25.133Z,17.80
2017-08-09T00:22:53.472Z,17.90
2017-08-09T00:25:21.004Z,17.80
2017-08-09T00:27:48.537Z,17.90
2017-08-09T00:30:16.140Z,18.00
2017-08-09T00:32:43.678Z,17.90
2017-08-09T00:35:11.225Z,17.90
2017-08-09T00:37:38.801Z,17.80
2017-08-09T00:40:06.654Z,17.80
2017-08-09T00:42:34.197Z,17.90
2017-08-09T00:45:01.801Z,17.90
2017-08-09T00:47:29.437Z,17.90
2017-08-09T00:49:56.972Z,17.80
2017-08-09T00:52:24.576Z,17.80
2017-08-09T00:54:52.119Z,17.70
2017-08-09T00:57:19.661Z,17.70
2017-08-09T00:59:47.249Z,17.80
2017-08-09T01:02:14.783Z,17.90
2017-08-09T01:04:42.329Z,17.80
2017-08-09T01:07:09.892Z,17.90
2017-08-09T01:09:37.420Z,17.90
2017-08-09T01:12:04.952Z,18.00
2017-08-09T01:14:32.554Z,17.90
2017-08-09T01:17:00.089Z,18.00
2017-08-09T01:19:27.638Z,18.00
2017-08-09T01:21:55.257Z,17.80
2017-08-09T01:24:22.792Z,17.70
2017-08-09T01:26:50.330Z,17.60
2017-08-09T01:29:17.888Z,17.50
2017-08-09T01:31:45.429Z,17.50
2017-08-09T01:34:12.964Z,17.50
2017-08-09T01:36:40.561Z,17.50
2017-08-09T01:39:08.102Z,17.40
2017-08-09T01:41:36.077Z,17.60
2017-08-09T01:44:03.645Z,17.50
2017-08-09T01:46:31.184Z,17.50
2017-08-09T01:48:58.715Z,17.40
2017-08-09T01:51:26.284Z,17.30
2017-08-09T01:53:54.597Z,17.10
2017-08-09T01:56:22.137Z,17.10
2017-08-09T01:58:50.551Z,17.20
2017-08-09T02:01:18.085Z,17.20
2017-08-09T02:03:45.620Z,17.20
2017-08-09T02:06:13.193Z,17.30
2017-08-09T02:08:41.496Z,17.40
2017-08-09T02:11:09.032Z,17.40
2017-08-09T02:13:37.369Z,17.50
2017-08-09T02:16:04.908Z,17.40
2017-08-09T02:18:32.449Z,17.60
2017-08-09T02:21:00.057Z,17.60
2017-08-09T02:23:27.602Z,17.70
2017-08-09T02:25:55.146Z,17.70
2017-08-09T02:28:22.758Z,17.60
2017-08-09T02:30:51.072Z,17.60
2017-08-09T02:33:18.608Z,17.60
2017-08-09T02:35:46.933Z,17.60
2017-08-09T02:38:14.465Z,17.60
2017-08-09T02:40:42.005Z,17.60
2017-08-09T02:43:10.308Z,17.60
2017-08-09T02:45:37.842Z,17.60
2017-08-09T02:48:05.377Z,17.70
2017-08-09T02:50:32.948Z,17.60
2017-08-09T02:53:01.266Z,17.40
2017-08-09T02:55:29.006Z,17.40
2017-08-09T02:57:56.574Z,17.20
2017-08-09T03:00:24.113Z,17.10
2017-08-09T03:02:51.677Z,17.20
2017-08-09T03:05:19.286Z,17.20
2017-08-09T03:07:46.833Z,17.30
2017-08-09T03:10:14.369Z,17.30
2017-08-09T03:12:41.939Z,17.30
2017-08-09T03:15:09.476Z,17.40
2017-08-09T03:17:37.014Z,17.20
2017-08-09T03:20:04.568Z,17.40
2017-08-09T03:22:32.101Z,17.30
2017-08-09T03:24:59.636Z,17.40
2017-08-09T03:27:27.246Z,17.40
2017-08-09T03:29:54.796Z,17.30
2017-08-09T03:32:22.338Z,17.30
2017-08-09T03:34:49.953Z,17.20
2017-08-09T03:37:18.257Z,17.30
2017-08-09T03:39:45.800Z,17.30
2017-08-09T03:42:14.142Z,17.30
2017-08-09T03:44:42.164Z,17.30
2017-08-09T03:47:09.702Z,17.40
2017-08-09T03:49:38.081Z,17.50
2017-08-09T03:52:06.399Z,17.50
2017-08-09T03:54:33.942Z,17.50
2017-08-09T03:57:01.504Z,17.50
2017-08-09T03:59:29.048Z,17.50
2017-08-09T04:01:56.589Z,17.40
2017-08-09T04:04:24.920Z,17.40
2017-08-09T04:06:52.457Z,17.40
2017-08-09T04:09:19.997Z,17.40
2017-08-09T04:11:47.605Z,17.40
2017-08-09T04:14:15.151Z,17.40
2017-08-09T04:16:42.715Z,17.50
2017-08-09T04:19:10.288Z,17.50
2017-08-09T04:21:37.831Z,17.50
2017-08-09T04:24:05.369Z,17.50
2017-08-09T04:26:32.997Z,17.50
2017-08-09T04:29:00.541Z,17.50
2017-08-09T04:31:28.085Z,17.50
2017-08-09T04:33:55.703Z,17.50
2017-08-09T04:36:24.015Z,17.20
2017-08-09T04:38:51.962Z,17.20
2017-08-09T04:41:19.572Z,17.10
2017-08-09T04:43:47.113Z,17.10
2017-08-09T04:46:14.901Z,17.00
2017-08-09T04:48:42.464Z,17.10
2017-08-09T04:51:10.004Z,17.10
2017-08-09T04:53:37.546Z,17.10
2017-08-09T04:56:05.148Z,17.20
2017-08-09T04:58:32.725Z,17.20
2017-08-09T05:01:01.028Z,17.20
2017-08-09T05:03:28.596Z,17.20
2017-08-09T05:05:56.129Z,17.20
2017-08-09T05:08:23.679Z,17.20
2017-08-09T05:10:51.246Z,17.20
2017-08-09T05:13:19.553Z,17.30
2017-08-09T05:15:47.088Z,17.20
2017-08-09T05:18:15.469Z,17.30
2017-08-09T05:20:43.815Z,17.30
2017-08-09T05:23:11.359Z,17.30
2017-08-09T05:25:38.921Z,17.30
2017-08-09T05:28:06.457Z,17.30
2017-08-09T05:30:33.989Z,17.20
2017-08-09T05:33:02.316Z,17.00
2017-08-09T05:35:29.853Z,17.00
2017-08-09T05:37:57.389Z,16.90
2017-08-09T05:40:25.157Z,16.90
2017-08-09T05:42:52.700Z,17.00
2017-08-09T05:45:20.246Z,17.00
2017-08-09T05:47:48.309Z,17.00
2017-08-09T05:50:15.849Z,17.10
2017-08-09T05:52:43.393Z,17.30
2017-08-09T05:55:10.965Z,17.40
2017-08-09T05:57:38.513Z,17.60
2017-08-09T06:00:06.048Z,17.70
2017-08-09T06:02:33.646Z,17.90
2017-08-09T06:05:01.181Z,18.30
2017-08-09T06:07:28.718Z,18.60
2017-08-09T06:09:56.278Z,18.80
2017-08-09T06:12:23.822Z,19.00
2017-08-09T06:14:52.134Z,19.70
2017-08-09T06:17:19.700Z,19.70
2017-08-09T06:19:47.236Z,19.90
2017-08-09T06:22:14.781Z,20.10
2017-08-09T06:24:42.393Z,20.10
2017-08-09T06:27:09.933Z,20.20
2017-08-09T06:29:37.478Z,20.10
2017-08-09T06:32:05.087Z,20.00
2017-08-09T06:34:32.637Z,19.90
2017-08-09T06:37:00.191Z,19.70
2017-08-09T06:39:27.761Z,19.60
2017-08-09T06:41:55.293Z,19.80
2017-08-09T06:44:22.838Z,20.20
2017-08-09T06:46:50.629Z,20.70
2017-08-09T06:49:18.229Z,21.50
2017-08-09T06:51:45.774Z,22.80
2017-08-09T06:54:13.376Z,23.90
2017-08-09T06:56:41.680Z,25.50
2017-08-09T06:59:09.217Z,25.40
2017-08-09T07:01:37.546Z,28.40
2017-08-09T07:04:05.093Z,28.30
2017-08-09T07:06:32.636Z,29.90
2017-08-09T07:09:00.245Z,29.40
2017-08-09T07:11:27.786Z,29.00
2017-08-09T07:13:55.325Z,29.50
2017-08-09T07:16:22.889Z,30.90
2017-08-09T07:18:50.428Z,32.60
2017-08-09T07:21:17.977Z,33.90
2017-08-09T07:23:45.557Z,34.90
2017-08-09T07:26:13.102Z,35.20
2017-08-09T07:28:40.674Z,34.70
2017-08-09T07:31:08.304Z,33.00
2017-08-09T07:33:36.626Z,30.80
2017-08-09T07:36:04.160Z,30.80
2017-08-09T07:38:31.737Z,31.10
2017-08-09T07:40:59.273Z,30.10
2017-08-09T07:43:26.818Z,30.20
2017-08-09T07:45:55.153Z,28.80
2017-08-09T07:48:22.717Z,28.80
2017-08-09T07:50:50.645Z,28.20
2017-08-09T07:53:18.257Z,28.20
2017-08-09T07:55:45.798Z,29.00
2017-08-09T07:58:13.334Z,28.90
2017-08-09T08:00:40.957Z,29.00
2017-08-09T08:03:08.496Z,28.50
2017-08-09T08:05:36.037Z,27.80
2017-08-09T08:08:04.368Z,26.00
2017-08-09T08:10:31.905Z,26.00
2017-08-09T08:12:59.437Z,25.90
2017-08-09T08:15:27.153Z,26.10
2017-08-09T08:17:55.473Z,28.90
2017-08-09T08:20:23.021Z,28.90
2017-08-09T08:22:50.591Z,30.80
2017-08-09T08:25:18.133Z,30.90
2017-08-09T08:27:45.682Z,30.10
2017-08-09T08:30:13.257Z,28.50
2017-08-09T08:32:40.802Z,26.80
2017-08-09T08:35:08.345Z,26.30
2017-08-09T08:37:36.761Z,26.80
2017-08-09T08:40:04.297Z,26.80
2017-08-09T08:42:31.841Z,26.80
2017-08-09T08:44:59.432Z,29.00
2017-08-09T08:47:26.981Z,30.20
2017-08-09T08:49:54.529Z,29.10
2017-08-09T08:52:22.339Z,28.00
2017-08-09T08:54:49.886Z,27.40
2017-08-09T08:57:17.428Z,28.00
2017-08-09T08:59:44.992Z,28.90
2017-08-09T09:02:12.549Z,29.50
2017-08-09T09:04:40.093Z,29.70
2017-08-09T09:07:07.705Z,30.10
2017-08-09T09:09:35.244Z,29.80
2017-08-09T09:12:02.789Z,30.30
2017-08-09T09:14:30.478Z,29.50
2017-08-09T09:16:58.021Z,28.60
2017-08-09T09:19:25.556Z,27.70
2017-08-09T09:21:53.120Z,27.60
2017-08-09T09:24:21.425Z,26.10
2017-08-09T09:26:48.960Z,26.00
2017-08-09T09:29:17.305Z,25.70
2017-08-09T09:31:44.846Z,25.70
2017-08-09T09:34:12.386Z,26.40
2017-08-09T09:36:39.990Z,27.10
2017-08-09T09:39:07.536Z,27.20
2017-08-09T09:41:35.069Z,26.60
2017-08-09T09:44:02.632Z,26.50
2017-08-09T09:46:30.196Z,26.20
2017-08-09T09:48:57.906Z,26.20
2017-08-09T09:51:26.810Z,28.30
2017-08-09T09:53:58.369Z,28.20
2017-08-09T09:56:25.946Z,29.50
2017-08-09T09:58:53.569Z,28.80
2017-08-09T10:01:21.903Z,26.40
2017-08-09T10:03:49.474Z,26.40
2017-08-09T10:06:17.102Z,27.60
2017-08-09T10:08:44.668Z,28.80
2017-08-09T10:11:12.247Z,27.90
2017-08-09T10:13:39.904Z,27.00
2017-08-09T10:16:07.447Z,26.20
2017-08-09T10:18:35.003Z,26.20
2017-08-09T10:21:02.614Z,26.40
2017-08-09T10:23:30.165Z,26.40
2017-08-09T10:25:57.718Z,26.20
2017-08-09T10:28:25.298Z,25.90
2017-08-09T10:30:52.852Z,26.10
2017-08-09T10:33:20.478Z,26.30
2017-08-09T10:35:48.066Z,26.30
2017-08-09T10:38:15.623Z,26.00
2017-08-09T10:40:43.186Z,25.70
2017-08-09T10:43:10.793Z,25.90
2017-08-09T10:45:38.401Z,26.10
2017-08-09T10:48:05.995Z,25.90
2017-08-09T10:50:33.597Z,25.70
2017-08-09T10:53:01.151Z,25.70
2017-08-09T10:55:29.775Z,25.70
2017-08-09T10:57:57.372Z,25.70
2017-08-09T11:00:24.917Z,25.70
2017-08-09T11:02:52.458Z,25.90
2017-08-09T11:05:20.074Z,25.90
2017-08-09T11:07:47.886Z,26.00
2017-08-09T11:10:15.442Z,25.70
2017-08-09T11:12:43.049Z,25.30
2017-08-09T11:15:10.725Z,25.20
2017-08-09T11:17:38.335Z,24.90
2017-08-09T11:20:05.970Z,24.70
2017-08-09T11:22:33.538Z,24.60
2017-08-09T11:25:01.091Z,24.60
2017-08-09T11:27:28.751Z,24.70
2017-08-09T11:29:56.314Z,24.80
2017-08-09T11:32:23.874Z,25.00
2017-08-09T11:34:51.605Z,24.90
2017-08-09T11:37:19.179Z,25.10
2017-08-09T11:39:46.738Z,25.30
2017-08-09T11:42:14.342Z,25.30
2017-08-09T11:44:41.912Z,25.20
2017-08-09T11:47:09.481Z,25.10
2017-08-09T11:49:37.434Z,25.00
2017-08-09T11:52:05.022Z,25.00
2017-08-09T11:54:32.586Z,24.90
2017-08-09T11:57:00.393Z,25.10
2017-08-09T11:59:28.005Z,25.10
2017-08-09T12:01:55.580Z,25.10
2017-08-09T12:04:23.167Z,24.90
2017-08-09T12:06:50.773Z,24.70
2017-08-09T12:09:18.364Z,24.70
2017-08-09T12:11:45.981Z,24.80
2017-08-09T12:14:13.544Z,24.80
2017-08-09T12:16:41.120Z,25.00
2017-08-09T12:19:08.726Z,25.20
2017-08-09T12:21:36.300Z,25.00
2017-08-09T12:24:04.308Z,25.20
2017-08-09T12:26:32.680Z,25.30
2017-08-09T12:29:00.221Z,25.30
2017-08-09T12:31:27.802Z,25.20
2017-08-09T12:33:55.384Z,25.20
2017-08-09T12:36:23.731Z,25.20
2017-08-09T12:38:51.285Z,25.20
2017-08-09T12:41:18.901Z,25.20
2017-08-09T12:43:46.482Z,25.20
2017-08-09T12:46:14.050Z,25.40
2017-08-09T12:48:41.641Z,25.40
2017-08-09T12:51:09.182Z,25.40
2017-08-09T12:53:36.724Z,25.40
2017-08-09T12:56:04.325Z,25.50
2017-08-09T12:58:32.222Z,25.50
2017-08-09T13:00:59.772Z,25.30
2017-08-09T13:03:27.393Z,25.40
2017-08-09T13:05:54.938Z,25.50
2017-08-09T13:08:22.490Z,25.30
2017-08-09T13:10:50.069Z,25.00
2017-08-09T13:13:17.627Z,24.80
2017-08-09T13:15:45.185Z,24.90
2017-08-09T13:18:13.853Z,25.10
2017-08-09T13:20:41.393Z,25.40
2017-08-09T13:23:08.936Z,25.40
2017-08-09T13:25:36.543Z,25.40
2017-08-09T13:28:04.082Z,25.40
2017-08-09T13:30:31.625Z,25.40
2017-08-09T13:32:59.220Z,25.50
2017-08-09T13:35:26.765Z,25.50
2017-08-09T13:37:54.309Z,25.40
2017-08-09T13:40:21.913Z,25.30
2017-08-09T13:42:49.465Z,25.50
2017-08-09T13:45:17.009Z,25.50
2017-08-09T13:47:44.569Z,25.40
2017-08-09T13:50:12.105Z,25.20
2017-08-09T13:52:40.406Z,25.10
2017-08-09T13:55:07.971Z,25.10
2017-08-09T13:57:35.509Z,25.10
2017-08-09T14:00:03.226Z,25.10
2017-08-09T14:02:30.838Z,25.20
2017-08-09T14:04:58.395Z,25.40
2017-08-09T14:07:25.949Z,25.50
2017-08-09T14:09:53.563Z,25.40
2017-08-09T14:12:21.121Z,25.30
2017-08-09T14:14:48.661Z,25.20
2017-08-09T14:17:16.230Z,25.30
2017-08-09T14:19:43.777Z,25.40
2017-08-09T14:22:11.403Z,25.40
2017-08-09T14:24:39.017Z,25.30
2017-08-09T14:27:06.563Z,25.40
2017-08-09T14:29:34.110Z,25.20
2017-08-09T14:32:01.737Z,25.40
2017-08-09T14:34:29.333Z,25.30
2017-08-09T14:36:57.043Z,25.00
2017-08-09T14:39:24.703Z,25.00
2017-08-09T14:41:52.245Z,24.90
2017-08-09T14:44:19.785Z,24.90
2017-08-09T14:46:48.644Z,24.90
2017-08-09T14:49:16.225Z,24.90
2017-08-09T14:51:43.777Z,24.90
2017-08-09T14:54:11.352Z,25.10
2017-08-09T14:56:38.933Z,25.10
2017-08-09T14:59:06.486Z,25.00
2017-08-09T15:01:34.909Z,25.00
2017-08-09T15:04:02.518Z,25.00
2017-08-09T15:06:30.099Z,25.20
2017-08-09T15:08:57.709Z,25.10
2017-08-09T15:11:25.285Z,25.00
2017-08-09T15:13:52.840Z,25.00
2017-08-09T15:16:20.445Z,24.90
2017-08-09T15:18:48.011Z,24.80
2017-08-09T15:21:15.623Z,24.80
2017-08-09T15:23:43.246Z,24.80
2017-08-09T15:26:10.890Z,24.80
2017-08-09T15:28:39.407Z,24.80
2017-08-09T15:31:07.051Z,24.60
2017-08-09T15:33:35.435Z,24.50
2017-08-09T15:36:02.992Z,24.50
2017-08-09T15:38:30.638Z,24.50
2017-08-09T15:40:58.275Z,24.50
2017-08-09T15:43:25.894Z,24.40
2017-08-09T15:45:54.302Z,24.20
2017-08-09T15:48:21.880Z,24.20
2017-08-09T15:50:49.470Z,24.20
2017-08-09T15:53:17.085Z,24.20
2017-08-09T15:55:45.415Z,24.20
2017-08-09T15:58:13.043Z,24.30
2017-08-09T16:00:41.484Z,24.20
2017-08-09T16:03:09.730Z,24.40
2017-08-09T16:05:37.297Z,24.40
2017-08-09T16:08:07.045Z,24.40
2017-08-09T16:10:34.640Z,24.40
2017-08-09T16:13:02.292Z,24.40
2017-08-09T16:15:29.885Z,24.30
2017-08-09T16:17:57.431Z,24.30
2017-08-09T16:20:24.969Z,24.30
2017-08-09T16:22:52.538Z,24.40
2017-08-09T16:25:20.092Z,24.40
2017-08-09T16:27:47.653Z,24.40
2017-08-09T16:30:17.533Z,24.40
2017-08-09T16:32:48.489Z,24.30
2017-08-09T16:35:16.270Z,24.30
2017-08-09T16:37:51.592Z,24.40
2017-08-09T16:40:19.218Z,24.30
2017-08-09T16:42:47.661Z,24.30
2017-08-09T16:45:16.475Z,24.30
2017-08-09T16:47:45.054Z,24.40
2017-08-09T16:50:13.966Z,24.40
2017-08-09T16:52:42.362Z,24.30
2017-08-09T16:55:09.965Z,24.30
2017-08-09T16:57:41.442Z,24.10
2017-08-09T17:00:10.070Z,24.10
2017-08-09T17:02:38.399Z,23.90
2017-08-09T17:05:06.193Z,23.80
2017-08-09T17:07:33.830Z,23.70
2017-08-09T17:10:05.909Z,23.70
2017-08-09T17:12:33.561Z,23.60
2017-08-09T17:15:05.694Z,23.60
2017-08-09T17:17:36.585Z,23.50
2017-08-09T17:20:05.273Z,23.40
2017-08-09T17:22:32.842Z,23.40
2017-08-09T17:25:19.960Z,23.30
2017-08-09T17:27:47.533Z,23.30
2017-08-09T17:30:15.123Z,23.30
2017-08-09T17:32:42.762Z,23.30
2017-08-09T17:35:10.305Z,23.30
2017-08-09T17:37:37.887Z,23.40
2017-08-09T17:40:05.474Z,23.30
2017-08-09T17:42:33.072Z,23.30
2017-08-09T17:45:00.665Z,23.30
2017-08-09T17:47:28.277Z,23.30
2017-08-09T17:49:55.829Z,23.40
2017-08-09T17:52:24.262Z,23.40
2017-08-09T17:54:51.930Z,23.40
2017-08-09T17:57:22.327Z,23.40
2017-08-09T17:59:49.897Z,23.30
2017-08-09T18:02:17.563Z,23.20
2017-08-09T18:04:45.112Z,23.20
2017-08-09T18:07:13.190Z,23.20
2017-08-09T18:09:40.766Z,23.20
2017-08-09T18:12:08.456Z,23.10
2017-08-09T18:14:36.012Z,23.10
2017-08-09T18:17:03.617Z,23.10
2017-08-09T18:19:31.254Z,23.10
2017-08-09T18:21:59.700Z,23.10
2017-08-09T18:24:27.272Z,23.10
2017-08-09T18:26:54.812Z,23.10
2017-08-09T18:29:22.374Z,23.20
2017-08-09T18:31:49.950Z,23.10
2017-08-09T18:34:17.489Z,23.10
2017-08-09T18:36:45.043Z,23.00
2017-08-09T18:39:23.822Z,22.90
2017-08-09T18:48:21.734Z,22.90
2017-08-09T18:50:49.281Z,22.70
2017-08-09T18:53:16.821Z,22.70
2017-08-09T18:55:45.016Z,22.60
2017-08-09T18:58:12.558Z,22.60
2017-08-09T19:00:40.109Z,22.60
2017-08-09T19:03:08.804Z,22.70
2017-08-09T19:05:37.381Z,22.80
2017-08-09T19:08:06.098Z,22.80
2017-08-09T19:14:47.597Z,22.80
2017-08-09T19:17:15.733Z,22.80
2017-08-09T19:19:44.294Z,22.80
2017-08-09T19:22:12.634Z,22.80
2017-08-09T19:24:40.209Z,22.70
2017-08-09T19:27:07.819Z,22.70
2017-08-09T19:29:35.411Z,22.70
2017-08-09T19:32:03.022Z,22.60
2017-08-09T19:34:30.589Z,22.50
2017-08-09T19:36:58.142Z,22.50
2017-08-09T19:39:25.761Z,22.50
2017-08-09T19:41:56.974Z,22.50
2017-08-09T19:44:24.590Z,22.50
2017-08-09T19:46:52.997Z,22.50
2017-08-09T19:49:22.328Z,22.50
2017-08-09T19:51:51.330Z,22.50
2017-08-09T19:54:18.968Z,22.50
2017-08-09T19:56:46.517Z,22.60
2017-08-09T19:59:16.832Z,22.50
2017-08-09T20:01:44.510Z,22.50
2017-08-09T20:04:13.006Z,22.40
2017-08-09T20:06:40.603Z,22.40
2017-08-09T20:09:08.783Z,22.20
2017-08-09T20:11:36.348Z,22.10
2017-08-09T20:14:03.897Z,22.10
2017-08-09T20:16:36.095Z,22.00
2017-08-09T20:19:03.678Z,22.00
2017-08-09T20:21:31.258Z,22.00
2017-08-09T20:24:00.290Z,22.00
2017-08-09T20:26:30.648Z,21.90
2017-08-09T20:28:58.246Z,21.90
2017-08-09T20:31:25.832Z,21.90
2017-08-09T20:33:53.398Z,21.80
2017-08-09T20:36:20.935Z,21.80
2017-08-09T20:38:48.500Z,21.70
2017-08-09T20:41:16.054Z,21.60
2017-08-09T20:43:43.608Z,21.60
2017-08-09T20:46:11.193Z,21.50
2017-08-09T20:48:38.745Z,21.50
2017-08-09T20:51:06.286Z,21.50
2017-08-09T20:53:33.913Z,21.50
2017-08-09T20:56:01.498Z,21.50
2017-08-09T20:58:29.062Z,21.40
2017-08-09T21:00:57.900Z,21.40
2017-08-09T21:03:25.454Z,21.40
2017-08-09T21:05:53.764Z,21.40
2017-08-09T21:08:21.373Z,21.40
2017-08-09T21:10:49.732Z,21.40
2017-08-09T21:13:17.273Z,21.40
2017-08-09T21:15:44.841Z,21.30
2017-08-09T21:18:12.384Z,21.30
2017-08-09T21:20:39.943Z,21.30
2017-08-09T21:23:07.528Z,21.30
2017-08-09T21:25:35.070Z,21.30
2017-08-09T21:28:02.613Z,21.30
2017-08-09T21:30:30.238Z,21.30
2017-08-09T21:32:57.833Z,21.30
2017-08-09T21:35:25.378Z,21.30
2017-08-09T21:37:52.954Z,21.20
2017-08-09T21:40:20.513Z,21.20
2017-08-09T21:42:48.065Z,21.10
2017-08-09T21:45:15.645Z,21.10
2017-08-09T21:47:43.207Z,21.00
2017-08-09T21:50:10.764Z,21.00
2017-08-09T21:52:38.373Z,20.90
2017-08-09T21:55:05.925Z,20.90
2017-08-09T21:57:33.482Z,20.90
2017-08-09T22:00:01.070Z,20.90
2017-08-09T22:02:28.608Z,20.80
2017-08-09T22:04:56.154Z,20.80
2017-08-09T22:07:23.793Z,20.80
2017-08-09T22:09:51.349Z,20.80
2017-08-09T22:12:19.126Z,20.80
2017-08-09T22:14:46.732Z,20.80
2017-08-09T22:17:14.269Z,20.80
2017-08-09T22:19:41.825Z,20.70
2017-08-09T22:22:09.405Z,20.70
2017-08-09T22:24:36.993Z,20.70
2017-08-09T22:27:04.533Z,20.60
2017-08-09T22:29:32.111Z,20.60
2017-08-09T22:31:59.669Z,20.50
2017-08-09T22:34:27.228Z,20.50
2017-08-09T22:36:55.593Z,20.30
2017-08-09T22:39:23.132Z,20.30
2017-08-09T22:41:50.673Z,20.20
2017-08-09T22:44:18.271Z,20.10
2017-08-09T22:46:45.818Z,20.00
2017-08-09T22:49:13.382Z,19.90
2017-08-09T22:51:41.141Z,19.80
2017-08-09T22:54:08.727Z,19.80
2017-08-09T22:56:36.342Z,19.70
2017-08-09T22:59:04.126Z,19.60
2017-08-09T23:01:31.693Z,19.60
2017-08-09T23:03:59.290Z,19.50
2017-08-09T23:06:26.918Z,19.50
2017-08-09T23:08:54.464Z,19.50
2017-08-09T23:11:22.097Z,19.50
2017-08-09T23:13:49.965Z,19.50
2017-08-09T23:16:17.861Z,19.40
2017-08-09T23:18:45.470Z,19.40
2017-08-09T23:21:13.862Z,19.30
2017-08-09T23:23:41.420Z,19.30
2017-08-09T23:26:09.219Z,19.40
2017-08-09T23:28:36.864Z,19.40
2017-08-09T23:31:04.416Z,19.30
2017-08-09T23:33:31.966Z,19.30
2017-08-09T23:35:59.545Z,19.30
2017-08-09T23:38:27.092Z,19.30
2017-08-09T23:40:54.637Z,19.30
2017-08-09T23:43:22.241Z,19.30
2017-08-09T23:45:49.797Z,19.20
2017-08-09T23:48:17.343Z,19.20
2017-08-09T23:50:44.930Z,19.10
2017-08-09T23:53:12.482Z,19.10
2017-08-09T23:55:40.073Z,19.00
2017-08-09T23:58:07.674Z,19.00
